sensor_id;sensor_type;location;lat;lon;timestamp;P1;durP1;ratioP1;P2;durP2;ratioP2
4375;SDS011;2202;50.866;12.750;2024-02-16T00:00:57;5.73;;;5.10;;
4375;SDS011;2202;50.866;12.750;2024-02-16T00:03:25;7.70;;;6.80;;
4375;SDS011;2202;50.866;12.750;2024-02-16T00:05:52;21.60;;;15.50;;
4375;SDS011;2202;50.866;12.750;2024-02-16T00:08:20;14.70;;;12.10;;
4375;SDS011;2202;50.866;12.750;2024-02-16T00:10:47;10.70;;;8.20;;
4375;SDS011;2202;50.866;12.750;2024-02-16T00:13:14;9.53;;;8.50;;
4375;SDS011;2202;50.866;12.750;2024-02-16T00:15:41;15.43;;;10.27;;
4375;SDS011;2202;50.866;12.750;2024-02-16T00:18:08;17.53;;;12.20;;
4375;SDS011;2202;50.866;12.750;2024-02-16T00:20:35;9.53;;;8.60;;
4375;SDS011;2202;50.866;12.750;2024-02-16T00:23:02;9.30;;;7.33;;
4375;SDS011;2202;50.866;12.750;2024-02-16T00:25:30;9.00;;;7.60;;
4375;SDS011;2202;50.866;12.750;2024-02-16T00:27:59;8.33;;;7.53;;
4375;SDS011;2202;50.866;12.750;2024-02-16T00:30:26;8.60;;;6.57;;
4375;SDS011;2202;50.866;12.750;2024-02-16T00:32:53;8.97;;;6.90;;
4375;SDS011;2202;50.866;12.750;2024-02-16T00:35:20;9.17;;;6.93;;
4375;SDS011;2202;50.866;12.750;2024-02-16T00:37:47;8.03;;;6.93;;
4375;SDS011;2202;50.866;12.750;2024-02-16T00:40:13;11.73;;;9.43;;
4375;SDS011;2202;50.866;12.750;2024-02-16T00:42:42;8.73;;;7.63;;
4375;SDS011;2202;50.866;12.750;2024-02-16T00:45:08;8.10;;;7.17;;
4375;SDS011;2202;50.866;12.750;2024-02-16T00:47:35;11.97;;;7.00;;
4375;SDS011;2202;50.866;12.750;2024-02-16T00:50:03;6.43;;;5.83;;
4375;SDS011;2202;50.866;12.750;2024-02-16T00:52:33;6.50;;;5.83;;
4375;SDS011;2202;50.866;12.750;2024-02-16T00:55:00;8.20;;;6.80;;
4375;SDS011;2202;50.866;12.750;2024-02-16T00:57:29;6.87;;;6.30;;
4375;SDS011;2202;50.866;12.750;2024-02-16T00:59:57;6.40;;;5.90;;
4375;SDS011;2202;50.866;12.750;2024-02-16T01:02:23;6.80;;;6.20;;
4375;SDS011;2202;50.866;12.750;2024-02-16T01:04:50;6.70;;;6.20;;
4375;SDS011;2202;50.866;12.750;2024-02-16T01:07:19;6.20;;;5.60;;
4375;SDS011;2202;50.866;12.750;2024-02-16T01:09:46;6.63;;;6.03;;
4375;SDS011;2202;50.866;12.750;2024-02-16T01:12:13;5.83;;;5.33;;
4375;SDS011;2202;50.866;12.750;2024-02-16T01:14:40;5.90;;;5.30;;
4375;SDS011;2202;50.866;12.750;2024-02-16T01:17:08;6.17;;;5.30;;
4375;SDS011;2202;50.866;12.750;2024-02-16T01:19:35;5.40;;;4.93;;
4375;SDS011;2202;50.866;12.750;2024-02-16T01:22:02;8.10;;;5.70;;
4375;SDS011;2202;50.866;12.750;2024-02-16T01:24:29;6.47;;;5.83;;
4375;SDS011;2202;50.866;12.750;2024-02-16T01:26:56;6.53;;;5.17;;
4375;SDS011;2202;50.866;12.750;2024-02-16T01:29:23;8.57;;;5.07;;
4375;SDS011;2202;50.866;12.750;2024-02-16T01:31:50;5.70;;;5.20;;
4375;SDS011;2202;50.866;12.750;2024-02-16T01:34:18;9.40;;;6.07;;
4375;SDS011;2202;50.866;12.750;2024-02-16T01:36:45;6.90;;;6.20;;
4375;SDS011;2202;50.866;12.750;2024-02-16T01:39:12;6.33;;;5.73;;
4375;SDS011;2202;50.866;12.750;2024-02-16T01:41:38;7.20;;;5.53;;
4375;SDS011;2202;50.866;12.750;2024-02-16T01:44:05;5.83;;;5.33;;
4375;SDS011;2202;50.866;12.750;2024-02-16T01:46:33;6.63;;;5.93;;
4375;SDS011;2202;50.866;12.750;2024-02-16T01:49:00;6.23;;;5.63;;
4375;SDS011;2202;50.866;12.750;2024-02-16T01:51:29;5.40;;;4.90;;
4375;SDS011;2202;50.866;12.750;2024-02-16T01:53:56;5.27;;;4.87;;
4375;SDS011;2202;50.866;12.750;2024-02-16T01:56:23;9.80;;;5.80;;
4375;SDS011;2202;50.866;12.750;2024-02-16T01:58:51;6.60;;;5.50;;
4375;SDS011;2202;50.866;12.750;2024-02-16T02:01:18;6.60;;;5.63;;
4375;SDS011;2202;50.866;12.750;2024-02-16T02:03:45;6.40;;;5.90;;
4375;SDS011;2202;50.866;12.750;2024-02-16T02:06:12;5.80;;;5.40;;
4375;SDS011;2202;50.866;12.750;2024-02-16T02:08:40;6.73;;;5.97;;
4375;SDS011;2202;50.866;12.750;2024-02-16T02:11:07;7.73;;;5.80;;
4375;SDS011;2202;50.866;12.750;2024-02-16T02:13:34;6.57;;;6.00;;
4375;SDS011;2202;50.866;12.750;2024-02-16T02:16:01;5.63;;;5.13;;
4375;SDS011;2202;50.866;12.750;2024-02-16T02:18:30;6.43;;;5.63;;
4375;SDS011;2202;50.866;12.750;2024-02-16T02:20:57;7.23;;;6.07;;
4375;SDS011;2202;50.866;12.750;2024-02-16T02:23:25;9.00;;;6.20;;
4375;SDS011;2202;50.866;12.750;2024-02-16T02:25:52;6.40;;;5.80;;
4375;SDS011;2202;50.866;12.750;2024-02-16T02:28:19;6.70;;;6.00;;
4375;SDS011;2202;50.866;12.750;2024-02-16T02:30:48;5.93;;;5.07;;
4375;SDS011;2202;50.866;12.750;2024-02-16T02:33:15;5.90;;;5.50;;
4375;SDS011;2202;50.866;12.750;2024-02-16T02:35:42;6.37;;;5.70;;
4375;SDS011;2202;50.866;12.750;2024-02-16T02:38:09;6.80;;;6.13;;
4375;SDS011;2202;50.866;12.750;2024-02-16T02:40:37;6.93;;;5.23;;
4375;SDS011;2202;50.866;12.750;2024-02-16T02:43:04;6.30;;;5.47;;
4375;SDS011;2202;50.866;12.750;2024-02-16T02:45:31;5.87;;;5.37;;
4375;SDS011;2202;50.866;12.750;2024-02-16T02:47:58;6.10;;;5.60;;
4375;SDS011;2202;50.866;12.750;2024-02-16T02:50:25;5.50;;;5.00;;
4375;SDS011;2202;50.866;12.750;2024-02-16T02:52:52;8.83;;;6.67;;
4375;SDS011;2202;50.866;12.750;2024-02-16T02:55:18;9.70;;;8.07;;
4375;SDS011;2202;50.866;12.750;2024-02-16T02:57:47;7.00;;;6.40;;
4375;SDS011;2202;50.866;12.750;2024-02-16T03:00:14;9.23;;;7.57;;
4375;SDS011;2202;50.866;12.750;2024-02-16T03:02:41;10.20;;;8.57;;
4375;SDS011;2202;50.866;12.750;2024-02-16T03:05:09;8.70;;;7.73;;
4375;SDS011;2202;50.866;12.750;2024-02-16T03:07:36;9.23;;;7.73;;
4375;SDS011;2202;50.866;12.750;2024-02-16T03:10:04;8.93;;;7.70;;
4375;SDS011;2202;50.866;12.750;2024-02-16T03:12:34;7.00;;;6.30;;
4375;SDS011;2202;50.866;12.750;2024-02-16T03:15:02;7.90;;;7.10;;
4375;SDS011;2202;50.866;12.750;2024-02-16T03:17:29;8.57;;;6.23;;
4375;SDS011;2202;50.866;12.750;2024-02-16T03:19:56;5.97;;;5.37;;
4375;SDS011;2202;50.866;12.750;2024-02-16T03:22:23;6.13;;;5.63;;
4375;SDS011;2202;50.866;12.750;2024-02-16T03:24:50;7.60;;;6.10;;
4375;SDS011;2202;50.866;12.750;2024-02-16T03:27:17;5.50;;;5.00;;
4375;SDS011;2202;50.866;12.750;2024-02-16T03:29:44;5.37;;;4.67;;
4375;SDS011;2202;50.866;12.750;2024-02-16T03:32:12;5.83;;;5.03;;
4375;SDS011;2202;50.866;12.750;2024-02-16T03:34:39;4.80;;;4.40;;
4375;SDS011;2202;50.866;12.750;2024-02-16T03:37:06;6.60;;;6.00;;
4375;SDS011;2202;50.866;12.750;2024-02-16T03:39:33;5.67;;;5.27;;
4375;SDS011;2202;50.866;12.750;2024-02-16T03:42:00;5.10;;;4.60;;
4375;SDS011;2202;50.866;12.750;2024-02-16T03:44:27;5.50;;;4.97;;
4375;SDS011;2202;50.866;12.750;2024-02-16T03:46:54;4.37;;;4.07;;
4375;SDS011;2202;50.866;12.750;2024-02-16T03:49:22;5.77;;;4.77;;
4375;SDS011;2202;50.866;12.750;2024-02-16T03:51:49;5.43;;;4.60;;
4375;SDS011;2202;50.866;12.750;2024-02-16T03:54:17;5.00;;;4.20;;
4375;SDS011;2202;50.866;12.750;2024-02-16T03:56:43;6.03;;;4.80;;
4375;SDS011;2202;50.866;12.750;2024-02-16T03:59:10;4.80;;;4.40;;
4375;SDS011;2202;50.866;12.750;2024-02-16T04:01:37;5.90;;;4.50;;
4375;SDS011;2202;50.866;12.750;2024-02-16T04:04:04;4.37;;;4.10;;
4375;SDS011;2202;50.866;12.750;2024-02-16T04:06:32;6.97;;;4.30;;
4375;SDS011;2202;50.866;12.750;2024-02-16T04:08:59;5.43;;;4.97;;
4375;SDS011;2202;50.866;12.750;2024-02-16T04:11:26;5.77;;;4.70;;
4375;SDS011;2202;50.866;12.750;2024-02-16T04:13:54;5.30;;;4.80;;
4375;SDS011;2202;50.866;12.750;2024-02-16T04:16:21;5.50;;;4.73;;
4375;SDS011;2202;50.866;12.750;2024-02-16T04:18:49;4.90;;;4.17;;
4375;SDS011;2202;50.866;12.750;2024-02-16T04:21:16;5.50;;;4.93;;
4375;SDS011;2202;50.866;12.750;2024-02-16T04:23:45;6.07;;;4.53;;
4375;SDS011;2202;50.866;12.750;2024-02-16T04:26:11;4.87;;;4.37;;
4375;SDS011;2202;50.866;12.750;2024-02-16T04:28:37;5.33;;;4.93;;
4375;SDS011;2202;50.866;12.750;2024-02-16T04:31:05;5.97;;;5.13;;
4375;SDS011;2202;50.866;12.750;2024-02-16T04:33:32;8.63;;;5.50;;
4375;SDS011;2202;50.866;12.750;2024-02-16T04:35:58;5.57;;;5.07;;
4375;SDS011;2202;50.866;12.750;2024-02-16T04:38:25;10.20;;;4.53;;
4375;SDS011;2202;50.866;12.750;2024-02-16T04:40:54;5.43;;;4.93;;
4375;SDS011;2202;50.866;12.750;2024-02-16T04:43:20;6.77;;;5.23;;
4375;SDS011;2202;50.866;12.750;2024-02-16T04:45:47;6.30;;;4.47;;
4375;SDS011;2202;50.866;12.750;2024-02-16T04:48:14;5.50;;;3.87;;
4375;SDS011;2202;50.866;12.750;2024-02-16T04:50:41;5.20;;;4.60;;
4375;SDS011;2202;50.866;12.750;2024-02-16T04:53:08;6.43;;;4.60;;
4375;SDS011;2202;50.866;12.750;2024-02-16T04:55:35;4.03;;;3.70;;
4375;SDS011;2202;50.866;12.750;2024-02-16T04:58:03;4.97;;;4.43;;
4375;SDS011;2202;50.866;12.750;2024-02-16T05:00:34;5.23;;;4.70;;
4375;SDS011;2202;50.866;12.750;2024-02-16T05:03:01;5.03;;;3.97;;
4375;SDS011;2202;50.866;12.750;2024-02-16T05:05:28;4.20;;;3.90;;
4375;SDS011;2202;50.866;12.750;2024-02-16T05:07:55;7.33;;;3.23;;
4375;SDS011;2202;50.866;12.750;2024-02-16T05:10:23;5.70;;;4.00;;
4375;SDS011;2202;50.866;12.750;2024-02-16T05:12:50;5.93;;;3.80;;
4375;SDS011;2202;50.866;12.750;2024-02-16T05:15:18;4.80;;;4.40;;
4375;SDS011;2202;50.866;12.750;2024-02-16T05:17:47;5.47;;;4.90;;
4375;SDS011;2202;50.866;12.750;2024-02-16T05:20:14;5.30;;;4.00;;
4375;SDS011;2202;50.866;12.750;2024-02-16T05:22:42;5.40;;;5.00;;
4375;SDS011;2202;50.866;12.750;2024-02-16T05:25:10;10.30;;;6.40;;
4375;SDS011;2202;50.866;12.750;2024-02-16T05:27:37;4.97;;;4.47;;
4375;SDS011;2202;50.866;12.750;2024-02-16T05:30:05;6.00;;;4.50;;
4375;SDS011;2202;50.866;12.750;2024-02-16T05:32:35;4.37;;;4.00;;
4375;SDS011;2202;50.866;12.750;2024-02-16T05:35:03;6.23;;;5.67;;
4375;SDS011;2202;50.866;12.750;2024-02-16T05:37:36;10.00;;;9.10;;
4375;SDS011;2202;50.866;12.750;2024-02-16T05:40:06;11.70;;;10.60;;
4375;SDS011;2202;50.866;12.750;2024-02-16T05:42:44;11.10;;;10.20;;
4375;SDS011;2202;50.866;12.750;2024-02-16T05:45:12;11.00;;;10.10;;
4375;SDS011;2202;50.866;12.750;2024-02-16T05:47:40;11.67;;;10.70;;
4375;SDS011;2202;50.866;12.750;2024-02-16T05:50:08;9.90;;;8.90;;
4375;SDS011;2202;50.866;12.750;2024-02-16T05:52:37;11.00;;;10.00;;
4375;SDS011;2202;50.866;12.750;2024-02-16T05:55:04;8.47;;;7.80;;
4375;SDS011;2202;50.866;12.750;2024-02-16T05:57:32;7.50;;;6.90;;
4375;SDS011;2202;50.866;12.750;2024-02-16T05:59:58;9.00;;;8.13;;
4375;SDS011;2202;50.866;12.750;2024-02-16T06:02:25;8.20;;;7.50;;
4375;SDS011;2202;50.866;12.750;2024-02-16T06:04:54;7.87;;;7.27;;
4375;SDS011;2202;50.866;12.750;2024-02-16T06:07:21;6.77;;;6.30;;
4375;SDS011;2202;50.866;12.750;2024-02-16T06:09:48;8.23;;;6.83;;
4375;SDS011;2202;50.866;12.750;2024-02-16T06:12:15;6.13;;;5.50;;
4375;SDS011;2202;50.866;12.750;2024-02-16T06:14:42;9.00;;;4.60;;
4375;SDS011;2202;50.866;12.750;2024-02-16T06:17:09;5.33;;;4.80;;
4375;SDS011;2202;50.866;12.750;2024-02-16T06:19:36;4.40;;;4.00;;
4375;SDS011;2202;50.866;12.750;2024-02-16T06:22:04;4.33;;;3.70;;
4375;SDS011;2202;50.866;12.750;2024-02-16T06:24:33;3.67;;;3.37;;
4375;SDS011;2202;50.866;12.750;2024-02-16T06:26:59;3.90;;;3.60;;
4375;SDS011;2202;50.866;12.750;2024-02-16T06:29:27;3.60;;;3.30;;
4375;SDS011;2202;50.866;12.750;2024-02-16T06:31:55;3.50;;;3.30;;
4375;SDS011;2202;50.866;12.750;2024-02-16T06:34:22;4.10;;;2.80;;
4375;SDS011;2202;50.866;12.750;2024-02-16T06:36:49;4.67;;;4.00;;
4375;SDS011;2202;50.866;12.750;2024-02-16T06:39:17;4.33;;;3.10;;
4375;SDS011;2202;50.866;12.750;2024-02-16T06:41:45;3.40;;;3.10;;
4375;SDS011;2202;50.866;12.750;2024-02-16T06:44:12;3.37;;;3.07;;
4375;SDS011;2202;50.866;12.750;2024-02-16T06:46:39;3.67;;;3.37;;
4375;SDS011;2202;50.866;12.750;2024-02-16T06:49:07;3.33;;;3.03;;
4375;SDS011;2202;50.866;12.750;2024-02-16T06:51:34;3.93;;;3.20;;
4375;SDS011;2202;50.866;12.750;2024-02-16T06:54:01;4.50;;;3.37;;
4375;SDS011;2202;50.866;12.750;2024-02-16T06:56:30;4.90;;;3.37;;
4375;SDS011;2202;50.866;12.750;2024-02-16T06:58:58;3.47;;;2.67;;
4375;SDS011;2202;50.866;12.750;2024-02-16T07:01:25;2.43;;;2.23;;
4375;SDS011;2202;50.866;12.750;2024-02-16T07:03:52;4.00;;;2.67;;
4375;SDS011;2202;50.866;12.750;2024-02-16T07:06:19;5.40;;;3.20;;
4375;SDS011;2202;50.866;12.750;2024-02-16T07:08:46;2.07;;;1.87;;
4375;SDS011;2202;50.866;12.750;2024-02-16T07:11:13;2.40;;;1.87;;
4375;SDS011;2202;50.866;12.750;2024-02-16T07:13:41;2.03;;;1.90;;
4375;SDS011;2202;50.866;12.750;2024-02-16T07:16:08;3.70;;;2.10;;
4375;SDS011;2202;50.866;12.750;2024-02-16T07:18:35;3.70;;;2.80;;
4375;SDS011;2202;50.866;12.750;2024-02-16T07:21:03;3.40;;;2.20;;
4375;SDS011;2202;50.866;12.750;2024-02-16T07:23:30;2.50;;;1.83;;
4375;SDS011;2202;50.866;12.750;2024-02-16T07:25:57;2.33;;;1.80;;
4375;SDS011;2202;50.866;12.750;2024-02-16T07:28:24;3.60;;;2.00;;
4375;SDS011;2202;50.866;12.750;2024-02-16T07:30:52;3.10;;;1.80;;
4375;SDS011;2202;50.866;12.750;2024-02-16T07:33:20;2.43;;;1.83;;
4375;SDS011;2202;50.866;12.750;2024-02-16T07:35:49;2.30;;;2.10;;
4375;SDS011;2202;50.866;12.750;2024-02-16T07:38:16;2.67;;;2.13;;
4375;SDS011;2202;50.866;12.750;2024-02-16T07:40:43;2.30;;;2.10;;
4375;SDS011;2202;50.866;12.750;2024-02-16T07:43:11;2.47;;;2.03;;
4375;SDS011;2202;50.866;12.750;2024-02-16T07:45:38;3.10;;;2.43;;
4375;SDS011;2202;50.866;12.750;2024-02-16T07:48:07;3.23;;;2.37;;
4375;SDS011;2202;50.866;12.750;2024-02-16T07:50:33;6.73;;;4.33;;
4375;SDS011;2202;50.866;12.750;2024-02-16T07:53:00;5.20;;;4.70;;
4375;SDS011;2202;50.866;12.750;2024-02-16T07:55:27;3.20;;;2.20;;
4375;SDS011;2202;50.866;12.750;2024-02-16T07:57:54;2.67;;;2.47;;
4375;SDS011;2202;50.866;12.750;2024-02-16T08:00:21;2.90;;;2.60;;
4375;SDS011;2202;50.866;12.750;2024-02-16T08:02:48;4.00;;;3.13;;
4375;SDS011;2202;50.866;12.750;2024-02-16T08:05:16;4.80;;;3.87;;
4375;SDS011;2202;50.866;12.750;2024-02-16T08:07:44;4.73;;;3.40;;
4375;SDS011;2202;50.866;12.750;2024-02-16T08:10:12;4.30;;;2.80;;
4375;SDS011;2202;50.866;12.750;2024-02-16T08:12:39;2.97;;;2.40;;
4375;SDS011;2202;50.866;12.750;2024-02-16T08:15:06;3.57;;;3.27;;
4375;SDS011;2202;50.866;12.750;2024-02-16T08:17:35;5.10;;;3.13;;
4375;SDS011;2202;50.866;12.750;2024-02-16T08:20:06;3.40;;;2.77;;
4375;SDS011;2202;50.866;12.750;2024-02-16T08:22:36;3.13;;;2.40;;
4375;SDS011;2202;50.866;12.750;2024-02-16T08:25:03;3.33;;;3.03;;
4375;SDS011;2202;50.866;12.750;2024-02-16T08:27:30;3.10;;;2.20;;
4375;SDS011;2202;50.866;12.750;2024-02-16T08:29:57;4.90;;;2.40;;
4375;SDS011;2202;50.866;12.750;2024-02-16T08:32:24;2.73;;;2.43;;
4375;SDS011;2202;50.866;12.750;2024-02-16T08:34:52;6.10;;;2.77;;
4375;SDS011;2202;50.866;12.750;2024-02-16T08:37:21;3.90;;;2.17;;
4375;SDS011;2202;50.866;12.750;2024-02-16T08:39:49;2.93;;;2.63;;
4375;SDS011;2202;50.866;12.750;2024-02-16T08:42:16;2.40;;;2.07;;
4375;SDS011;2202;50.866;12.750;2024-02-16T08:44:43;2.83;;;2.20;;
4375;SDS011;2202;50.866;12.750;2024-02-16T08:47:10;2.00;;;1.77;;
4375;SDS011;2202;50.866;12.750;2024-02-16T08:49:37;7.87;;;1.77;;
4375;SDS011;2202;50.866;12.750;2024-02-16T08:52:05;1.63;;;1.53;;
4375;SDS011;2202;50.866;12.750;2024-02-16T08:54:32;1.70;;;1.43;;
4375;SDS011;2202;50.866;12.750;2024-02-16T08:57:00;3.00;;;1.70;;
4375;SDS011;2202;50.866;12.750;2024-02-16T08:59:27;2.53;;;1.87;;
4375;SDS011;2202;50.866;12.750;2024-02-16T09:01:55;3.30;;;2.10;;
4375;SDS011;2202;50.866;12.750;2024-02-16T09:04:23;2.20;;;1.90;;
4375;SDS011;2202;50.866;12.750;2024-02-16T09:06:50;2.20;;;1.60;;
4375;SDS011;2202;50.866;12.750;2024-02-16T09:09:17;2.07;;;1.30;;
4375;SDS011;2202;50.866;12.750;2024-02-16T09:11:44;2.37;;;1.87;;
4375;SDS011;2202;50.866;12.750;2024-02-16T09:14:12;2.10;;;1.90;;
4375;SDS011;2202;50.866;12.750;2024-02-16T09:16:39;3.50;;;1.40;;
4375;SDS011;2202;50.866;12.750;2024-02-16T09:19:06;2.33;;;1.20;;
4375;SDS011;2202;50.866;12.750;2024-02-16T09:21:33;1.80;;;1.30;;
4375;SDS011;2202;50.866;12.750;2024-02-16T09:24:00;2.20;;;1.50;;
4375;SDS011;2202;50.866;12.750;2024-02-16T09:26:28;3.83;;;2.20;;
4375;SDS011;2202;50.866;12.750;2024-02-16T09:28:57;2.40;;;2.20;;
4375;SDS011;2202;50.866;12.750;2024-02-16T09:31:25;2.67;;;2.37;;
4375;SDS011;2202;50.866;12.750;2024-02-16T09:33:52;3.33;;;2.77;;
4375;SDS011;2202;50.866;12.750;2024-02-16T09:36:19;2.73;;;1.40;;
4375;SDS011;2202;50.866;12.750;2024-02-16T09:38:45;2.10;;;1.90;;
4375;SDS011;2202;50.866;12.750;2024-02-16T09:41:12;2.83;;;1.50;;
4375;SDS011;2202;50.866;12.750;2024-02-16T09:43:41;2.47;;;1.23;;
4375;SDS011;2202;50.866;12.750;2024-02-16T09:46:08;1.90;;;1.67;;
4375;SDS011;2202;50.866;12.750;2024-02-16T09:48:36;1.80;;;1.63;;
4375;SDS011;2202;50.866;12.750;2024-02-16T09:51:08;3.17;;;1.60;;
4375;SDS011;2202;50.866;12.750;2024-02-16T09:53:36;3.07;;;2.30;;
4375;SDS011;2202;50.866;12.750;2024-02-16T09:56:04;2.43;;;2.10;;
4375;SDS011;2202;50.866;12.750;2024-02-16T09:58:33;2.10;;;1.63;;
4375;SDS011;2202;50.866;12.750;2024-02-16T10:01:00;1.83;;;1.50;;
4375;SDS011;2202;50.866;12.750;2024-02-16T10:03:29;2.83;;;1.73;;
4375;SDS011;2202;50.866;12.750;2024-02-16T10:06:05;2.00;;;1.40;;
4375;SDS011;2202;50.866;12.750;2024-02-16T10:08:32;1.87;;;1.33;;
4375;SDS011;2202;50.866;12.750;2024-02-16T10:11:02;2.60;;;1.27;;
4375;SDS011;2202;50.866;12.750;2024-02-16T10:13:30;1.80;;;1.17;;
4375;SDS011;2202;50.866;12.750;2024-02-16T10:16:06;1.70;;;1.50;;
4375;SDS011;2202;50.866;12.750;2024-02-16T10:18:35;2.17;;;1.53;;
4375;SDS011;2202;50.866;12.750;2024-02-16T10:21:02;2.43;;;1.80;;
4375;SDS011;2202;50.866;12.750;2024-02-16T10:23:31;2.30;;;1.80;;
4375;SDS011;2202;50.866;12.750;2024-02-16T10:25:57;2.00;;;1.30;;
4375;SDS011;2202;50.866;12.750;2024-02-16T10:28:26;3.20;;;2.00;;
4375;SDS011;2202;50.866;12.750;2024-02-16T10:30:57;2.17;;;1.50;;
4375;SDS011;2202;50.866;12.750;2024-02-16T10:33:26;2.50;;;1.90;;
4375;SDS011;2202;50.866;12.750;2024-02-16T10:35:54;2.03;;;1.77;;
4375;SDS011;2202;50.866;12.750;2024-02-16T10:38:24;3.60;;;1.63;;
4375;SDS011;2202;50.866;12.750;2024-02-16T10:40:52;2.00;;;1.60;;
4375;SDS011;2202;50.866;12.750;2024-02-16T10:43:20;1.97;;;1.30;;
4375;SDS011;2202;50.866;12.750;2024-02-16T10:45:48;2.93;;;1.20;;
4375;SDS011;2202;50.866;12.750;2024-02-16T10:48:18;1.90;;;1.23;;
4375;SDS011;2202;50.866;12.750;2024-02-16T10:50:45;3.87;;;1.63;;
4375;SDS011;2202;50.866;12.750;2024-02-16T10:53:17;1.60;;;1.40;;
4375;SDS011;2202;50.866;12.750;2024-02-16T10:55:49;3.03;;;2.20;;
4375;SDS011;2202;50.866;12.750;2024-02-16T10:58:16;3.70;;;2.20;;
4375;SDS011;2202;50.866;12.750;2024-02-16T11:00:50;2.53;;;2.23;;
4375;SDS011;2202;50.866;12.750;2024-02-16T11:03:20;2.30;;;1.93;;
4375;SDS011;2202;50.866;12.750;2024-02-16T11:05:49;1.73;;;1.57;;
4375;SDS011;2202;50.866;12.750;2024-02-16T11:08:18;3.57;;;1.90;;
4375;SDS011;2202;50.866;12.750;2024-02-16T11:10:57;2.13;;;1.20;;
4375;SDS011;2202;50.866;12.750;2024-02-16T11:13:26;2.20;;;1.60;;
4375;SDS011;2202;50.866;12.750;2024-02-16T11:15:57;4.03;;;1.40;;
4375;SDS011;2202;50.866;12.750;2024-02-16T11:18:25;2.63;;;1.53;;
4375;SDS011;2202;50.866;12.750;2024-02-16T11:20:53;2.03;;;1.37;;
4375;SDS011;2202;50.866;12.750;2024-02-16T11:23:24;1.60;;;1.00;;
4375;SDS011;2202;50.866;12.750;2024-02-16T11:25:53;1.50;;;1.03;;
4375;SDS011;2202;50.866;12.750;2024-02-16T11:28:21;1.90;;;1.50;;
4375;SDS011;2202;50.866;12.750;2024-02-16T11:30:50;1.80;;;1.13;;
4375;SDS011;2202;50.866;12.750;2024-02-16T11:33:17;1.83;;;0.90;;
4375;SDS011;2202;50.866;12.750;2024-02-16T11:35:51;1.40;;;1.00;;
4375;SDS011;2202;50.866;12.750;2024-02-16T11:38:19;1.50;;;1.00;;
4375;SDS011;2202;50.866;12.750;2024-02-16T11:40:52;7.00;;;3.80;;
4375;SDS011;2202;50.866;12.750;2024-02-16T11:43:22;2.40;;;2.13;;
4375;SDS011;2202;50.866;12.750;2024-02-16T11:45:49;1.77;;;1.10;;
4375;SDS011;2202;50.866;12.750;2024-02-16T11:48:19;2.13;;;1.23;;
4375;SDS011;2202;50.866;12.750;2024-02-16T11:50:47;1.70;;;1.33;;
4375;SDS011;2202;50.866;12.750;2024-02-16T11:53:15;2.10;;;1.40;;
4375;SDS011;2202;50.866;12.750;2024-02-16T11:55:46;1.83;;;1.13;;
4375;SDS011;2202;50.866;12.750;2024-02-16T11:58:14;2.20;;;1.30;;
4375;SDS011;2202;50.866;12.750;2024-02-16T12:00:44;2.50;;;1.60;;
4375;SDS011;2202;50.866;12.750;2024-02-16T12:03:12;1.50;;;1.10;;
4375;SDS011;2202;50.866;12.750;2024-02-16T12:05:49;2.97;;;1.53;;
4375;SDS011;2202;50.866;12.750;2024-02-16T12:08:19;2.27;;;1.23;;
4375;SDS011;2202;50.866;12.750;2024-02-16T12:10:47;1.70;;;1.10;;
4375;SDS011;2202;50.866;12.750;2024-02-16T12:13:15;1.57;;;1.00;;
4375;SDS011;2202;50.866;12.750;2024-02-16T12:15:44;1.70;;;1.40;;
4375;SDS011;2202;50.866;12.750;2024-02-16T12:18:18;5.77;;;3.77;;
4375;SDS011;2202;50.866;12.750;2024-02-16T12:20:55;1.63;;;1.20;;
4375;SDS011;2202;50.866;12.750;2024-02-16T12:23:23;3.60;;;1.43;;
4375;SDS011;2202;50.866;12.750;2024-02-16T12:25:50;1.50;;;1.30;;
4375;SDS011;2202;50.866;12.750;2024-02-16T12:28:16;1.60;;;1.20;;
4375;SDS011;2202;50.866;12.750;2024-02-16T12:30:47;1.53;;;1.07;;
4375;SDS011;2202;50.866;12.750;2024-02-16T12:33:14;3.30;;;1.37;;
4375;SDS011;2202;50.866;12.750;2024-02-16T12:35:41;1.80;;;1.50;;
4375;SDS011;2202;50.866;12.750;2024-02-16T12:38:08;2.70;;;1.80;;
4375;SDS011;2202;50.866;12.750;2024-02-16T12:40:35;2.80;;;2.07;;
4375;SDS011;2202;50.866;12.750;2024-02-16T12:43:02;2.60;;;1.90;;
4375;SDS011;2202;50.866;12.750;2024-02-16T12:45:29;3.83;;;3.40;;
4375;SDS011;2202;50.866;12.750;2024-02-16T12:47:58;3.27;;;2.47;;
4375;SDS011;2202;50.866;12.750;2024-02-16T12:50:25;7.50;;;4.77;;
4375;SDS011;2202;50.866;12.750;2024-02-16T12:52:52;4.10;;;3.70;;
4375;SDS011;2202;50.866;12.750;2024-02-16T12:55:19;2.83;;;2.10;;
4375;SDS011;2202;50.866;12.750;2024-02-16T12:57:46;1.63;;;1.43;;
4375;SDS011;2202;50.866;12.750;2024-02-16T13:00:13;1.80;;;1.50;;
4375;SDS011;2202;50.866;12.750;2024-02-16T13:02:40;1.90;;;1.80;;
4375;SDS011;2202;50.866;12.750;2024-02-16T13:05:09;2.47;;;2.27;;
4375;SDS011;2202;50.866;12.750;2024-02-16T13:07:36;3.33;;;3.03;;
4375;SDS011;2202;50.866;12.750;2024-02-16T13:10:05;5.73;;;5.10;;
4375;SDS011;2202;50.866;12.750;2024-02-16T13:12:32;6.53;;;5.60;;
4375;SDS011;2202;50.866;12.750;2024-02-16T13:14:59;4.53;;;3.43;;
4375;SDS011;2202;50.866;12.750;2024-02-16T13:17:27;14.00;;;10.10;;
4375;SDS011;2202;50.866;12.750;2024-02-16T13:19:54;13.30;;;10.13;;
4375;SDS011;2202;50.866;12.750;2024-02-16T13:22:24;8.17;;;7.37;;
4375;SDS011;2202;50.866;12.750;2024-02-16T13:24:51;18.73;;;13.37;;
4375;SDS011;2202;50.866;12.750;2024-02-16T13:27:17;12.80;;;9.20;;
4375;SDS011;2202;50.866;12.750;2024-02-16T13:29:44;3.33;;;3.03;;
4375;SDS011;2202;50.866;12.750;2024-02-16T13:32:11;2.47;;;1.97;;
4375;SDS011;2202;50.866;12.750;2024-02-16T13:34:38;3.00;;;2.47;;
4375;SDS011;2202;50.866;12.750;2024-02-16T13:37:05;3.40;;;2.30;;
4375;SDS011;2202;50.866;12.750;2024-02-16T13:39:33;2.33;;;1.80;;
4375;SDS011;2202;50.866;12.750;2024-02-16T13:42:00;2.23;;;1.90;;
4375;SDS011;2202;50.866;12.750;2024-02-16T13:44:42;2.17;;;1.97;;
4375;SDS011;2202;50.866;12.750;2024-02-16T13:47:09;2.20;;;1.57;;
4375;SDS011;2202;50.866;12.750;2024-02-16T13:49:36;2.87;;;1.97;;
4375;SDS011;2202;50.866;12.750;2024-02-16T13:52:02;9.13;;;6.60;;
4375;SDS011;2202;50.866;12.750;2024-02-16T13:54:30;5.27;;;4.13;;
4375;SDS011;2202;50.866;12.750;2024-02-16T13:56:58;5.30;;;4.47;;
4375;SDS011;2202;50.866;12.750;2024-02-16T13:59:28;4.53;;;3.53;;
4375;SDS011;2202;50.866;12.750;2024-02-16T14:01:55;10.17;;;6.23;;
4375;SDS011;2202;50.866;12.750;2024-02-16T14:04:22;8.03;;;4.80;;
4375;SDS011;2202;50.866;12.750;2024-02-16T14:06:49;7.77;;;5.40;;
4375;SDS011;2202;50.866;12.750;2024-02-16T14:09:16;13.07;;;8.17;;
4375;SDS011;2202;50.866;12.750;2024-02-16T14:11:44;10.40;;;7.00;;
4375;SDS011;2202;50.866;12.750;2024-02-16T14:14:13;5.30;;;4.63;;
4375;SDS011;2202;50.866;12.750;2024-02-16T14:16:40;2.33;;;2.13;;
4375;SDS011;2202;50.866;12.750;2024-02-16T14:19:07;2.57;;;2.37;;
4375;SDS011;2202;50.866;12.750;2024-02-16T14:21:34;2.23;;;2.03;;
4375;SDS011;2202;50.866;12.750;2024-02-16T14:24:01;3.00;;;2.70;;
4375;SDS011;2202;50.866;12.750;2024-02-16T14:26:28;3.97;;;2.97;;
4375;SDS011;2202;50.866;12.750;2024-02-16T14:28:55;2.47;;;2.23;;
4375;SDS011;2202;50.866;12.750;2024-02-16T14:31:23;2.40;;;2.20;;
4375;SDS011;2202;50.866;12.750;2024-02-16T14:33:50;2.93;;;2.10;;
4375;SDS011;2202;50.866;12.750;2024-02-16T14:36:17;3.20;;;2.37;;
4375;SDS011;2202;50.866;12.750;2024-02-16T14:38:44;6.50;;;2.43;;
4375;SDS011;2202;50.866;12.750;2024-02-16T14:41:10;4.70;;;3.00;;
4375;SDS011;2202;50.866;12.750;2024-02-16T14:43:41;3.93;;;2.67;;
4375;SDS011;2202;50.866;12.750;2024-02-16T14:46:08;2.37;;;2.07;;
4375;SDS011;2202;50.866;12.750;2024-02-16T14:48:37;3.37;;;2.80;;
4375;SDS011;2202;50.866;12.750;2024-02-16T14:51:04;2.73;;;2.30;;
4375;SDS011;2202;50.866;12.750;2024-02-16T14:53:31;3.33;;;2.30;;
4375;SDS011;2202;50.866;12.750;2024-02-16T14:55:58;3.03;;;2.73;;
4375;SDS011;2202;50.866;12.750;2024-02-16T14:58:25;4.60;;;3.07;;
4375;SDS011;2202;50.866;12.750;2024-02-16T15:00:51;3.00;;;2.80;;
4375;SDS011;2202;50.866;12.750;2024-02-16T15:03:19;3.87;;;3.43;;